Time,TemperatureF,DewpointF,PressureIn,WindDirection,WindDirectionDegrees,WindSpeedMPH,WindSpeedGustMPH,Humidity,HourlyPrecipIn,Conditions,Clouds,dailyrainin,SoftwareType,DateUTC
2013-01-06 00:00:00,24.3,21.3,30.24,NNW,345,0.0,0.0,88,0.00,,,0.00,Wunderground v.1.15,2013-01-06 05:00:00,
2013-01-06 00:01:00,24.2,21.4,30.24,NNW,345,0.0,0.0,89,0.00,,,0.00,Wunderground v.1.15,2013-01-06 05:01:00,
2013-01-06 00:02:00,24.2,21.4,30.24,NNW,345,0.0,0.0,89,0.00,,,0.00,Wunderground v.1.15,2013-01-06 05:02:00,
2013-01-06 00:04:00,24.2,21.4,30.24,NNW,345,0.0,0.0,89,0.00,,,0.00,Wunderground v.1.15,2013-01-06 05:04:00,
2013-01-06 00:09:00,24.4,21.6,30.23,West,276,1.0,3.0,89,0.00,,,0.00,Wunderground v.1.15,2013-01-06 05:09:00,
2013-01-06 00:14:00,24.7,21.9,30.23,West,276,2.0,2.0,89,0.00,,,0.00,Wunderground v.1.15,2013-01-06 05:14:00,
2013-01-06 00:20:00,24.8,22.0,30.24,West,276,1.0,1.0,89,0.00,,,0.00,Wunderground v.1.15,2013-01-06 05:20:00,
2013-01-06 00:26:00,25.0,22.2,30.23,West,276,1.0,2.0,89,0.00,,,0.00,Wunderground v.1.15,2013-01-06 05:26:00,
2013-01-06 00:32:00,25.2,22.4,30.22,West,276,1.0,3.0,89,0.00,,,0.00,Wunderground v.1.15,2013-01-06 05:32:00,
2013-01-06 00:38:00,25.3,22.5,30.22,West,276,0.0,3.0,89,0.00,,,0.00,Wunderground v.1.15,2013-01-06 05:38:00,
2013-01-06 00:44:00,25.4,22.3,30.22,West,276,0.0,3.0,88,0.00,,,0.00,Wunderground v.1.15,2013-01-06 05:44:00,
2013-01-06 00:50:00,25.7,22.6,30.22,West,276,0.0,3.0,88,0.00,,,0.00,Wunderground v.1.15,2013-01-06 05:50:00,
2013-01-06 00:55:00,26.0,22.9,30.21,West,276,1.0,3.0,88,0.00,,,0.00,Wunderground v.1.15,2013-01-06 05:55:00,
2013-01-06 01:00:00,26.1,23.0,30.22,West,276,1.0,1.0,88,0.00,,,0.00,Wunderground v.1.15,2013-01-06 06:00:00,
2013-01-06 01:06:00,26.1,23.0,30.23,West,276,0.0,1.0,88,0.00,,,0.00,Wunderground v.1.15,2013-01-06 06:06:00,
2013-01-06 01:12:00,26.2,23.1,30.22,West,276,0.0,0.0,88,0.00,,,0.00,Wunderground v.1.15,2013-01-06 06:12:00,
2013-01-06 01:17:00,26.3,23.2,30.22,West,276,0.0,0.0,88,0.00,,,0.00,Wunderground v.1.15,2013-01-06 06:17:00,
2013-01-06 01:23:00,26.3,23.2,30.23,West,276,0.0,0.0,88,0.00,,,0.00,Wunderground v.1.15,2013-01-06 06:23:00,
2013-01-06 01:29:00,26.3,23.2,30.23,West,276,0.0,1.0,88,0.00,,,0.00,Wunderground v.1.15,2013-01-06 06:29:00,
2013-01-06 01:35:00,26.5,23.4,30.23,West,276,0.0,3.0,88,0.00,,,0.00,Wunderground v.1.15,2013-01-06 06:35:00,
2013-01-06 01:41:00,26.6,23.8,30.23,West,276,0.0,3.0,89,0.00,,,0.00,Wunderground v.1.15,2013-01-06 06:41:00,
2013-01-06 01:47:00,26.8,24.0,30.25,West,276,0.0,3.0,89,0.00,,,0.00,Wunderground v.1.15,2013-01-06 06:47:00,
2013-01-06 01:53:00,27.0,24.2,30.25,West,276,0.0,3.0,89,0.00,,,0.00,Wunderground v.1.15,2013-01-06 06:53:00,
2013-01-06 01:59:00,27.1,24.3,30.25,West,276,0.0,3.0,89,0.00,,,0.00,Wunderground v.1.15,2013-01-06 06:59:00,
2013-01-06 02:05:00,27.2,24.4,30.25,West,276,0.0,0.0,89,0.00,,,0.00,Wunderground v.1.15,2013-01-06 07:05:00,
2013-01-06 02:11:00,27.3,24.5,30.24,West,276,0.0,0.0,89,0.00,,,0.00,Wunderground v.1.15,2013-01-06 07:11:00,
2013-01-06 02:17:00,27.4,24.3,30.25,West,276,0.0,0.0,88,0.00,,,0.00,Wunderground v.1.15,2013-01-06 07:17:00,
2013-01-06 02:22:00,27.5,24.7,30.25,West,276,0.0,0.0,89,0.00,,,0.00,Wunderground v.1.15,2013-01-06 07:22:00,
2013-01-06 02:28:00,27.6,24.8,30.25,West,276,0.0,0.0,89,0.00,,,0.00,Wunderground v.1.15,2013-01-06 07:28:00,
2013-01-06 02:34:00,27.7,24.9,30.24,West,276,0.0,2.0,89,0.00,,,0.00,Wunderground v.1.15,2013-01-06 07:34:00,
2013-01-06 02:40:00,27.8,25.0,30.24,West,276,0.0,2.0,89,0.00,,,0.00,Wunderground v.1.15,2013-01-06 07:40:00,
2013-01-06 02:46:00,27.9,25.1,30.23,West,276,0.0,2.0,89,0.00,,,0.00,Wunderground v.1.15,2013-01-06 07:46:00,
2013-01-06 02:52:00,28.0,25.2,30.23,West,276,0.0,2.0,89,0.00,,,0.00,Wunderground v.1.15,2013-01-06 07:52:00,
2013-01-06 02:58:00,28.1,25.3,30.22,West,276,0.0,2.0,89,0.00,,,0.00,Wunderground v.1.15,2013-01-06 07:58:00,
2013-01-06 03:03:00,28.2,25.4,30.22,West,276,0.0,0.0,89,0.00,,,0.00,Wunderground v.1.15,2013-01-06 08:03:00,
2013-01-06 03:08:00,28.3,25.5,30.21,West,276,0.0,0.0,89,0.00,,,0.00,Wunderground v.1.15,2013-01-06 08:08:00,
2013-01-06 03:14:00,28.4,25.6,30.21,West,276,0.0,0.0,89,0.00,,,0.00,Wunderground v.1.15,2013-01-06 08:14:00,
2013-01-06 03:20:00,28.6,25.8,30.21,West,276,0.0,0.0,89,0.00,,,0.00,Wunderground v.1.15,2013-01-06 08:20:00,
2013-01-06 03:26:00,28.7,25.9,30.21,West,276,0.0,0.0,89,0.00,,,0.00,Wunderground v.1.15,2013-01-06 08:26:00,
2013-01-06 03:31:00,28.8,26.0,30.20,West,276,0.0,0.0,89,0.00,,,0.00,Wunderground v.1.15,2013-01-06 08:31:00,
2013-01-06 03:37:00,28.9,26.3,30.19,West,276,0.0,0.0,90,0.00,,,0.00,Wunderground v.1.15,2013-01-06 08:37:00,
2013-01-06 03:43:00,29.0,26.2,30.18,West,276,0.0,0.0,89,0.00,,,0.00,Wunderground v.1.15,2013-01-06 08:43:00,
2013-01-06 03:48:00,29.1,26.3,30.19,West,276,0.0,0.0,89,0.00,,,0.00,Wunderground v.1.15,2013-01-06 08:48:00,
2013-01-06 03:54:00,29.2,26.4,30.19,West,276,0.0,0.0,89,0.00,,,0.00,Wunderground v.1.15,2013-01-06 08:54:00,
2013-01-06 04:00:00,29.2,26.4,30.20,West,276,0.0,0.0,89,0.00,,,0.00,Wunderground v.1.15,2013-01-06 09:00:00,
2013-01-06 04:06:00,29.3,26.5,30.19,West,276,0.0,0.0,89,0.00,,,0.00,Wunderground v.1.15,2013-01-06 09:06:00,
2013-01-06 04:12:00,29.4,26.6,30.19,West,276,0.0,0.0,89,0.00,,,0.00,Wunderground v.1.15,2013-01-06 09:12:00,
2013-01-06 04:18:00,29.5,26.7,30.18,West,276,0.0,0.0,89,0.00,,,0.00,Wunderground v.1.15,2013-01-06 09:18:00,
2013-01-06 04:24:00,29.6,26.8,30.18,West,276,0.0,0.0,89,0.00,,,0.00,Wunderground v.1.15,2013-01-06 09:24:00,
2013-01-06 04:30:00,29.7,26.9,30.17,West,276,0.0,0.0,89,0.00,,,0.00,Wunderground v.1.15,2013-01-06 09:30:00,
2013-01-06 04:36:00,29.7,26.9,30.17,West,276,0.0,0.0,89,0.00,,,0.00,Wunderground v.1.15,2013-01-06 09:36:00,
2013-01-06 04:42:00,29.8,27.0,30.16,West,276,0.0,0.0,89,0.00,,,0.00,Wunderground v.1.15,2013-01-06 09:42:00,
2013-01-06 04:47:00,29.8,27.0,30.16,West,276,0.0,0.0,89,0.00,,,0.00,Wunderground v.1.15,2013-01-06 09:47:00,
2013-01-06 04:53:00,29.9,27.1,30.16,West,276,0.0,0.0,89,0.00,,,0.00,Wunderground v.1.15,2013-01-06 09:53:00,
2013-01-06 04:59:00,30.0,27.2,30.16,West,276,0.0,1.0,89,0.00,,,0.00,Wunderground v.1.15,2013-01-06 09:59:00,
2013-01-06 05:05:00,30.1,27.3,30.16,West,276,0.0,0.0,89,0.00,,,0.00,Wunderground v.1.15,2013-01-06 10:05:00,
2013-01-06 05:11:00,30.2,27.3,30.16,West,276,0.0,0.0,89,0.00,,,0.00,Wunderground v.1.15,2013-01-06 10:11:00,
2013-01-06 05:17:00,30.3,27.2,30.15,West,276,0.0,0.0,88,0.00,,,0.00,Wunderground v.1.15,2013-01-06 10:17:00,
2013-01-06 05:23:00,30.4,27.3,30.15,West,276,0.0,0.0,88,0.00,,,0.00,Wunderground v.1.15,2013-01-06 10:23:00,
2013-01-06 05:28:00,30.5,27.4,30.15,West,276,0.0,0.0,88,0.00,,,0.00,Wunderground v.1.15,2013-01-06 10:28:00,
2013-01-06 05:34:00,30.6,27.7,30.15,West,276,0.0,1.0,89,0.00,,,0.00,Wunderground v.1.15,2013-01-06 10:34:00,
2013-01-06 05:40:00,30.7,27.8,30.14,West,276,0.0,1.0,89,0.00,,,0.00,Wunderground v.1.15,2013-01-06 10:40:00,
2013-01-06 05:46:00,30.7,27.8,30.14,West,276,0.0,1.0,89,0.00,,,0.00,Wunderground v.1.15,2013-01-06 10:46:00,
2013-01-06 05:52:00,30.8,27.9,30.15,West,276,0.0,1.0,89,0.00,,,0.00,Wunderground v.1.15,2013-01-06 10:52:00,
2013-01-06 05:57:00,30.9,28.0,30.15,West,276,0.0,1.0,89,0.00,,,0.00,Wunderground v.1.15,2013-01-06 10:57:00,
2013-01-06 06:03:00,31.0,28.1,30.14,West,276,0.0,0.0,89,0.00,,,0.00,Wunderground v.1.15,2013-01-06 11:03:00,
2013-01-06 06:09:00,31.1,28.2,30.14,West,276,0.0,0.0,89,0.00,,,0.00,Wunderground v.1.15,2013-01-06 11:09:00,
2013-01-06 06:14:00,31.2,28.6,30.14,West,276,0.0,1.0,90,0.00,,,0.00,Wunderground v.1.15,2013-01-06 11:14:00,
2013-01-06 06:20:00,31.4,28.8,30.15,West,276,0.0,0.0,90,0.00,,,0.00,Wunderground v.1.15,2013-01-06 11:20:00,
2013-01-06 06:26:00,31.5,29.2,30.15,West,276,0.0,0.0,91,0.00,,,0.00,Wunderground v.1.15,2013-01-06 11:26:00,
2013-01-06 06:32:00,32.0,29.9,30.15,West,276,0.0,1.0,92,0.00,,,0.00,Wunderground v.1.15,2013-01-06 11:32:00,
2013-01-06 06:38:00,32.8,31.0,30.14,West,259,0.0,3.0,93,0.00,,,0.00,Wunderground v.1.15,2013-01-06 11:38:00,
2013-01-06 06:44:00,34.4,32.6,30.14,SW,236,2.0,5.0,93,0.00,,,0.00,Wunderground v.1.15,2013-01-06 11:44:00,
2013-01-06 06:50:00,35.2,33.4,30.14,WSW,253,2.0,5.0,93,0.00,,,0.00,Wunderground v.1.15,2013-01-06 11:50:00,
2013-01-06 06:56:00,35.7,33.9,30.14,WNW,288,3.0,6.0,93,0.00,,,0.01,Wunderground v.1.15,2013-01-06 11:56:00,
2013-01-06 07:02:00,36.1,34.0,30.14,WSW,257,4.0,4.0,92,0.00,,,0.01,Wunderground v.1.15,2013-01-06 12:02:00,
2013-01-06 07:08:00,36.2,33.8,30.14,SW,223,4.0,8.0,91,0.04,,,0.02,Wunderground v.1.15,2013-01-06 12:08:00,
2013-01-06 07:13:00,36.1,33.7,30.14,West,278,3.0,4.0,91,0.04,,,0.02,Wunderground v.1.15,2013-01-06 12:13:00,
2013-01-06 07:19:00,36.0,33.6,30.14,SW,225,4.0,8.0,91,0.05,,,0.03,Wunderground v.1.15,2013-01-06 12:19:00,
2013-01-06 07:25:00,35.9,33.5,30.13,SW,219,4.0,4.0,91,0.05,,,0.03,Wunderground v.1.15,2013-01-06 12:25:00,
2013-01-06 07:31:00,35.7,33.3,30.13,West,274,3.0,8.0,91,0.04,,,0.03,Wunderground v.1.15,2013-01-06 12:31:00,
2013-01-06 07:37:00,35.6,33.2,30.13,WSW,250,3.0,8.0,91,0.00,,,0.03,Wunderground v.1.15,2013-01-06 12:37:00,
2013-01-06 07:43:00,35.6,33.2,30.12,NW,310,3.0,8.0,91,0.00,,,0.03,Wunderground v.1.15,2013-01-06 12:43:00,
2013-01-06 07:49:00,35.5,33.1,30.13,WNW,285,3.0,8.0,91,0.00,,,0.04,Wunderground v.1.15,2013-01-06 12:49:00,
2013-01-06 07:55:00,35.6,33.2,30.13,West,279,3.0,8.0,91,0.00,,,0.04,Wunderground v.1.15,2013-01-06 12:55:00,
2013-01-06 08:00:00,35.7,33.3,30.13,NW,312,3.0,3.0,91,0.00,,,0.04,Wunderground v.1.15,2013-01-06 13:00:00,
2013-01-06 08:06:00,35.8,33.4,30.12,WSW,252,3.0,5.0,91,0.00,,,0.04,Wunderground v.1.15,2013-01-06 13:06:00,
2013-01-06 08:12:00,36.0,33.6,30.13,West,280,3.0,7.0,91,0.00,,,0.04,Wunderground v.1.15,2013-01-06 13:12:00,
2013-01-06 08:18:00,36.2,33.8,30.13,West,268,3.0,7.0,91,0.00,,,0.04,Wunderground v.1.15,2013-01-06 13:18:00,
2013-01-06 08:23:00,36.3,33.9,30.13,SSW,207,2.0,3.0,91,0.00,,,0.04,Wunderground v.1.15,2013-01-06 13:23:00,
2013-01-06 08:29:00,36.5,34.1,30.13,WSW,251,2.0,3.0,91,0.00,,,0.04,Wunderground v.1.15,2013-01-06 13:29:00,
2013-01-06 08:35:00,36.6,34.2,30.13,SW,224,1.0,9.0,91,0.00,,,0.04,Wunderground v.1.15,2013-01-06 13:35:00,
2013-01-06 08:41:00,36.7,34.3,30.13,SW,222,1.0,9.0,91,0.00,,,0.04,Wunderground v.1.15,2013-01-06 13:41:00,
2013-01-06 08:47:00,37.0,34.6,30.13,SW,219,2.0,9.0,91,0.00,,,0.04,Wunderground v.1.15,2013-01-06 13:47:00,
2013-01-06 08:53:00,37.3,34.6,30.13,SSW,211,2.0,9.0,90,0.00,,,0.04,Wunderground v.1.15,2013-01-06 13:53:00,
2013-01-06 08:59:00,37.6,34.9,30.13,WSW,239,2.0,9.0,90,0.00,,,0.04,Wunderground v.1.15,2013-01-06 13:59:00,
2013-01-06 09:05:00,37.9,34.7,30.13,WNW,283,3.0,8.0,88,0.00,,,0.04,Wunderground v.1.15,2013-01-06 14:05:00,
2013-01-06 09:10:00,38.2,34.7,30.13,WSW,252,3.0,5.0,87,0.00,,,0.04,Wunderground v.1.15,2013-01-06 14:10:00,
2013-01-06 09:16:00,38.4,34.9,30.13,WNW,301,3.0,5.0,87,0.00,,,0.04,Wunderground v.1.15,2013-01-06 14:16:00,
2013-01-06 09:22:00,38.4,34.3,30.12,WSW,251,4.0,5.0,85,0.00,,,0.04,Wunderground v.1.15,2013-01-06 14:22:00,
2013-01-06 09:28:00,38.5,34.4,30.13,West,268,4.0,9.0,85,0.00,,,0.04,Wunderground v.1.15,2013-01-06 14:28:00,
2013-01-06 09:34:00,38.6,34.2,30.13,West,269,4.0,7.0,84,0.00,,,0.04,Wunderground v.1.15,2013-01-06 14:34:00,
2013-01-06 09:39:00,38.8,34.4,30.13,West,261,4.0,7.0,84,0.00,,,0.04,Wunderground v.1.15,2013-01-06 14:39:00,
2013-01-06 09:45:00,38.8,34.4,30.13,West,262,4.0,7.0,84,0.00,,,0.04,Wunderground v.1.15,2013-01-06 14:45:00,
2013-01-06 09:51:00,39.0,34.9,30.13,WSW,249,5.0,7.0,85,0.00,,,0.04,Wunderground v.1.15,2013-01-06 14:51:00,
2013-01-06 09:57:00,39.3,35.2,30.12,WNW,282,5.0,10.0,85,0.00,,,0.04,Wunderground v.1.15,2013-01-06 14:57:00,
2013-01-06 10:03:00,39.7,35.9,30.12,NW,310,4.0,8.0,86,0.00,,,0.04,Wunderground v.1.15,2013-01-06 15:03:00,
2013-01-06 10:09:00,39.9,36.1,30.11,WSW,237,4.0,8.0,86,0.00,,,0.04,Wunderground v.1.15,2013-01-06 15:09:00,
2013-01-06 10:15:00,40.1,36.0,30.11,WSW,247,4.0,7.0,85,0.00,,,0.04,Wunderground v.1.15,2013-01-06 15:15:00,
2013-01-06 10:21:00,40.1,36.0,30.11,West,281,3.0,4.0,85,0.00,,,0.04,Wunderground v.1.15,2013-01-06 15:21:00,
2013-01-06 10:27:00,40.1,36.0,30.11,NW,314,4.0,8.0,85,0.00,,,0.04,Wunderground v.1.15,2013-01-06 15:27:00,
2013-01-06 10:33:00,40.3,35.8,30.10,SW,229,4.0,13.0,84,0.00,,,0.04,Wunderground v.1.15,2013-01-06 15:33:00,
2013-01-06 10:39:00,40.2,35.4,30.10,WSW,240,5.0,13.0,83,0.00,,,0.04,Wunderground v.1.15,2013-01-06 15:39:00,
2013-01-06 10:45:00,40.1,35.0,30.10,WNW,285,6.0,13.0,82,0.00,,,0.04,Wunderground v.1.15,2013-01-06 15:45:00,
2013-01-06 10:51:00,40.0,34.9,30.09,WSW,253,6.0,13.0,82,0.00,,,0.05,Wunderground v.1.15,2013-01-06 15:51:00,
2013-01-06 10:57:00,39.9,35.2,30.08,West,259,5.0,13.0,83,0.00,,,0.05,Wunderground v.1.15,2013-01-06 15:57:00,
2013-01-06 11:03:00,39.8,35.1,30.08,WSW,257,4.0,5.0,83,0.00,,,0.05,Wunderground v.1.15,2013-01-06 16:03:00,
2013-01-06 11:08:00,39.8,35.1,30.07,SW,232,5.0,10.0,83,0.00,,,0.05,Wunderground v.1.15,2013-01-06 16:08:00,
2013-01-06 11:14:00,40.0,35.6,30.07,WSW,257,5.0,8.0,84,0.00,,,0.05,Wunderground v.1.15,2013-01-06 16:14:00,
2013-01-06 11:20:00,40.1,35.7,30.06,West,277,5.0,7.0,84,0.00,,,0.05,Wunderground v.1.15,2013-01-06 16:20:00,
2013-01-06 11:26:00,40.2,35.8,30.06,WNW,291,4.0,10.0,84,0.00,,,0.05,Wunderground v.1.15,2013-01-06 16:26:00,
2013-01-06 11:32:00,40.2,35.8,30.06,WSW,238,4.0,14.0,84,0.00,,,0.05,Wunderground v.1.15,2013-01-06 16:32:00,
2013-01-06 11:38:00,40.5,35.7,30.05,SSW,199,5.0,14.0,83,0.00,,,0.05,Wunderground v.1.15,2013-01-06 16:38:00,
2013-01-06 11:43:00,40.7,35.9,30.05,West,271,5.0,14.0,83,0.00,,,0.05,Wunderground v.1.15,2013-01-06 16:43:00,
2013-01-06 11:49:00,40.8,35.7,30.04,SW,217,6.0,14.0,82,0.00,,,0.05,Wunderground v.1.15,2013-01-06 16:49:00,
2013-01-06 11:55:00,40.9,35.8,30.04,SW,236,6.0,14.0,82,0.00,,,0.05,Wunderground v.1.15,2013-01-06 16:55:00,
2013-01-06 12:00:00,41.0,36.2,30.03,SSW,212,6.0,6.0,83,0.00,,,0.05,Wunderground v.1.15,2013-01-06 17:00:00,
2013-01-06 12:06:00,41.3,36.5,30.03,WNW,290,6.0,11.0,83,0.00,,,0.05,Wunderground v.1.15,2013-01-06 17:06:00,
2013-01-06 12:12:00,41.2,36.1,30.03,West,264,6.0,10.0,82,0.00,,,0.05,Wunderground v.1.15,2013-01-06 17:12:00,
2013-01-06 12:17:00,41.2,36.1,30.03,WNW,296,6.0,10.0,82,0.00,,,0.05,Wunderground v.1.15,2013-01-06 17:17:00,
2013-01-06 12:23:00,41.2,35.8,30.03,West,278,7.0,8.0,81,0.00,,,0.05,Wunderground v.1.15,2013-01-06 17:23:00,
2013-01-06 12:29:00,41.6,36.2,30.02,NW,314,7.0,9.0,81,0.00,,,0.05,Wunderground v.1.15,2013-01-06 17:29:00,
2013-01-06 12:35:00,41.5,36.1,30.02,West,272,6.0,13.0,81,0.00,,,0.05,Wunderground v.1.15,2013-01-06 17:35:00,
2013-01-06 12:41:00,41.4,36.3,30.02,WNW,293,6.0,13.0,82,0.00,,,0.05,Wunderground v.1.15,2013-01-06 17:41:00,
2013-01-06 12:46:00,41.3,36.2,30.02,WSW,254,6.0,13.0,82,0.00,,,0.05,Wunderground v.1.15,2013-01-06 17:46:00,
2013-01-06 12:52:00,41.6,36.5,30.01,West,276,5.0,13.0,82,0.00,,,0.05,Wunderground v.1.15,2013-01-06 17:52:00,
2013-01-06 12:58:00,41.8,36.4,30.01,West,260,5.0,13.0,81,0.00,,,0.05,Wunderground v.1.15,2013-01-06 17:58:00,
2013-01-06 13:04:00,41.8,36.4,30.01,WSW,252,7.0,8.0,81,0.00,,,0.05,Wunderground v.1.15,2013-01-06 18:04:00,
2013-01-06 13:10:00,41.9,36.5,30.01,WNW,285,6.0,7.0,81,0.00,,,0.05,Wunderground v.1.15,2013-01-06 18:10:00,
2013-01-06 13:16:00,41.7,36.3,30.00,West,273,7.0,8.0,81,0.00,,,0.05,Wunderground v.1.15,2013-01-06 18:16:00,
2013-01-06 13:22:00,41.5,36.1,30.00,WNW,283,7.0,9.0,81,0.00,,,0.05,Wunderground v.1.15,2013-01-06 18:22:00,
2013-01-06 13:28:00,41.7,36.6,30.00,West,260,7.0,10.0,82,0.00,,,0.05,Wunderground v.1.15,2013-01-06 18:28:00,
2013-01-06 13:33:00,41.8,36.4,30.00,WNW,291,6.0,17.0,81,0.00,,,0.05,Wunderground v.1.15,2013-01-06 18:33:00,
2013-01-06 13:39:00,42.0,36.6,30.00,WSW,245,6.0,17.0,81,0.00,,,0.05,Wunderground v.1.15,2013-01-06 18:39:00,
2013-01-06 13:45:00,42.3,36.6,30.00,West,271,7.0,17.0,80,0.00,,,0.05,Wunderground v.1.15,2013-01-06 18:45:00,
2013-01-06 13:51:00,42.6,36.5,30.00,South,176,6.0,17.0,79,0.00,,,0.05,Wunderground v.1.15,2013-01-06 18:51:00,
2013-01-06 13:57:00,42.3,36.6,30.00,WNW,284,6.0,17.0,80,0.00,,,0.05,Wunderground v.1.15,2013-01-06 18:57:00,
2013-01-06 14:02:00,42.3,36.9,30.00,South,186,6.0,8.0,81,0.00,,,0.05,Wunderground v.1.15,2013-01-06 19:02:00,
2013-01-06 14:08:00,42.4,37.0,30.00,SW,236,5.0,8.0,81,0.00,,,0.05,Wunderground v.1.15,2013-01-06 19:08:00,
2013-01-06 14:14:00,42.2,36.8,30.00,West,278,6.0,8.0,81,0.00,,,0.05,Wunderground v.1.15,2013-01-06 19:14:00,
2013-01-06 14:20:00,42.2,36.8,30.00,West,267,6.0,6.0,81,0.00,,,0.05,Wunderground v.1.15,2013-01-06 19:20:00,
2013-01-06 14:25:00,42.2,36.8,30.00,WNW,297,6.0,8.0,81,0.00,,,0.05,Wunderground v.1.15,2013-01-06 19:25:00,
2013-01-06 14:31:00,42.2,36.8,30.00,WNW,293,6.0,17.0,81,0.00,,,0.05,Wunderground v.1.15,2013-01-06 19:31:00,
2013-01-06 14:36:00,42.0,36.6,30.00,WNW,284,6.0,17.0,81,0.00,,,0.05,Wunderground v.1.15,2013-01-06 19:36:00,
2013-01-06 14:41:00,41.9,36.8,30.00,WNW,293,6.0,17.0,82,0.00,,,0.05,Wunderground v.1.15,2013-01-06 19:41:00,
2013-01-06 14:47:00,41.9,36.8,30.00,West,261,5.0,17.0,82,0.00,,,0.05,Wunderground v.1.15,2013-01-06 19:47:00,
2013-01-06 14:52:00,41.8,36.7,30.00,WSW,255,4.0,17.0,82,0.00,,,0.05,Wunderground v.1.15,2013-01-06 19:52:00,
2013-01-06 14:58:00,41.6,36.5,29.99,West,271,5.0,17.0,82,0.00,,,0.05,Wunderground v.1.15,2013-01-06 19:58:00,
2013-01-06 15:04:00,41.6,36.5,29.99,WSW,256,4.0,6.0,82,0.00,,,0.05,Wunderground v.1.15,2013-01-06 20:04:00,
2013-01-06 15:09:00,41.4,36.3,29.99,WSW,251,4.0,6.0,82,0.00,,,0.05,Wunderground v.1.15,2013-01-06 20:09:00,
2013-01-06 15:11:00,41.4,36.3,29.99,WSW,248,4.0,6.0,82,0.00,,,0.05,Wunderground v.1.15,2013-01-06 20:11:00,
2013-01-06 15:13:00,41.3,36.2,29.99,WNW,291,4.0,10.0,82,0.00,,,0.05,Wunderground v.1.15,2013-01-06 20:13:00,
2013-01-06 15:19:00,41.2,36.4,29.98,WNW,285,5.0,10.0,83,0.00,,,0.05,Wunderground v.1.15,2013-01-06 20:19:00,
2013-01-06 15:25:00,41.1,36.3,29.98,WNW,284,4.0,6.0,83,0.00,,,0.05,Wunderground v.1.15,2013-01-06 20:25:00,
2013-01-06 15:30:00,41.1,36.3,29.98,WNW,302,3.0,3.0,83,0.00,,,0.05,Wunderground v.1.15,2013-01-06 20:30:00,
2013-01-06 15:36:00,40.9,36.1,29.98,West,264,2.0,14.0,83,0.00,,,0.05,Wunderground v.1.15,2013-01-06 20:36:00,
2013-01-06 15:42:00,40.7,36.2,29.98,West,275,3.0,14.0,84,0.00,,,0.05,Wunderground v.1.15,2013-01-06 20:42:00,
2013-01-06 15:47:00,40.6,36.1,29.98,WSW,241,3.0,14.0,84,0.00,,,0.05,Wunderground v.1.15,2013-01-06 20:47:00,
2013-01-06 15:53:00,40.5,36.3,29.99,West,272,4.0,14.0,85,0.00,,,0.05,Wunderground v.1.15,2013-01-06 20:53:00,
2013-01-06 15:58:00,40.4,36.2,29.99,West,259,3.0,14.0,85,0.00,,,0.05,Wunderground v.1.15,2013-01-06 20:58:00,
2013-01-06 16:02:00,40.3,36.1,29.99,West,262,3.0,3.0,85,0.00,,,0.05,Wunderground v.1.15,2013-01-06 21:02:00,
2013-01-06 16:07:00,40.2,36.1,29.99,WSW,252,3.0,4.0,85,0.00,,,0.05,Wunderground v.1.15,2013-01-06 21:07:00,
2013-01-06 16:13:00,40.1,36.0,29.99,WSW,256,3.0,3.0,85,0.00,,,0.05,Wunderground v.1.15,2013-01-06 21:13:00,
2013-01-06 16:18:00,39.9,35.8,29.98,West,263,3.0,4.0,85,0.00,,,0.05,Wunderground v.1.15,2013-01-06 21:18:00,
2013-01-06 16:24:00,39.8,35.7,29.98,West,278,2.0,3.0,85,0.00,,,0.05,Wunderground v.1.15,2013-01-06 21:24:00,
2013-01-06 16:30:00,39.5,35.7,29.98,West,267,2.0,2.0,86,0.00,,,0.05,Wunderground v.1.15,2013-01-06 21:30:00,
2013-01-06 16:36:00,39.3,35.5,29.99,WSW,240,2.0,11.0,86,0.00,,,0.05,Wunderground v.1.15,2013-01-06 21:36:00,
2013-01-06 16:42:00,39.1,35.3,29.98,West,271,1.0,11.0,86,0.00,,,0.05,Wunderground v.1.15,2013-01-06 21:42:00,
2013-01-06 16:48:00,38.9,35.4,29.98,West,276,1.0,11.0,87,0.00,,,0.05,Wunderground v.1.15,2013-01-06 21:48:00,
2013-01-06 16:54:00,38.7,35.2,29.98,West,261,1.0,11.0,87,0.00,,,0.05,Wunderground v.1.15,2013-01-06 21:54:00,
2013-01-06 17:00:00,38.5,35.0,29.99,WNW,293,0.0,0.0,87,0.00,,,0.05,Wunderground v.1.15,2013-01-06 22:00:00,
2013-01-06 17:06:00,38.2,35.0,29.99,WNW,298,1.0,3.0,88,0.00,,,0.05,Wunderground v.1.15,2013-01-06 22:06:00,
2013-01-06 17:11:00,38.1,34.9,29.99,West,276,1.0,2.0,88,0.00,,,0.05,Wunderground v.1.15,2013-01-06 22:11:00,
2013-01-06 17:17:00,38.1,34.9,29.99,West,259,2.0,4.0,88,0.00,,,0.05,Wunderground v.1.15,2013-01-06 22:17:00,
2013-01-06 17:23:00,38.0,35.0,29.99,West,281,2.0,2.0,89,0.00,,,0.05,Wunderground v.1.15,2013-01-06 22:23:00,
2013-01-06 17:28:00,38.1,34.9,29.99,WSW,257,2.0,3.0,88,0.00,,,0.05,Wunderground v.1.15,2013-01-06 22:28:00,
2013-01-06 17:34:00,38.1,34.6,29.99,West,266,2.0,5.0,87,0.00,,,0.05,Wunderground v.1.15,2013-01-06 22:34:00,
2013-01-06 17:40:00,38.0,34.8,30.00,WNW,287,2.0,5.0,88,0.00,,,0.05,Wunderground v.1.15,2013-01-06 22:40:00,
2013-01-06 17:46:00,38.2,34.7,30.00,West,270,3.0,5.0,87,0.00,,,0.05,Wunderground v.1.15,2013-01-06 22:46:00,
2013-01-06 17:52:00,38.6,34.8,30.00,West,270,3.0,5.0,86,0.00,,,0.05,Wunderground v.1.15,2013-01-06 22:52:00,
2013-01-06 17:58:00,38.5,34.4,30.00,West,262,2.0,5.0,85,0.00,,,0.05,Wunderground v.1.15,2013-01-06 22:58:00,
2013-01-06 18:03:00,38.5,34.4,30.00,West,264,2.0,3.0,85,0.00,,,0.05,Wunderground v.1.15,2013-01-06 23:03:00,
2013-01-06 18:09:00,38.4,34.0,30.00,West,281,2.0,3.0,84,0.00,,,0.05,Wunderground v.1.15,2013-01-06 23:09:00,
2013-01-06 18:15:00,38.3,33.6,30.00,WNW,288,2.0,4.0,83,0.00,,,0.05,Wunderground v.1.15,2013-01-06 23:15:00,
2013-01-06 18:20:00,38.1,33.4,30.00,West,279,2.0,2.0,83,0.00,,,0.05,Wunderground v.1.15,2013-01-06 23:20:00,
2013-01-06 18:26:00,38.2,33.5,30.00,West,280,2.0,3.0,83,0.00,,,0.05,Wunderground v.1.15,2013-01-06 23:26:00,
2013-01-06 18:32:00,38.0,33.3,30.00,WNW,292,2.0,8.0,83,0.00,,,0.05,Wunderground v.1.15,2013-01-06 23:32:00,
2013-01-06 18:37:00,37.9,33.2,30.00,WNW,284,1.0,8.0,83,0.00,,,0.05,Wunderground v.1.15,2013-01-06 23:37:00,
2013-01-06 18:43:00,37.5,32.8,30.00,WSW,245,1.0,8.0,83,0.00,,,0.05,Wunderground v.1.15,2013-01-06 23:43:00,
2013-01-06 18:49:00,37.0,32.3,30.00,WSW,245,0.0,8.0,83,0.00,,,0.05,Wunderground v.1.15,2013-01-06 23:49:00,
2013-01-06 18:55:00,36.0,31.6,30.00,WSW,245,0.0,8.0,84,0.00,,,0.05,Wunderground v.1.15,2013-01-06 23:55:00,
2013-01-06 19:00:00,35.2,30.9,30.00,West,276,0.0,0.0,84,0.00,,,0.05,Wunderground v.1.15,2013-01-07 00:00:00,
2013-01-06 19:06:00,34.5,30.7,30.00,West,276,0.0,1.0,86,0.00,,,0.05,Wunderground v.1.15,2013-01-07 00:06:00,
2013-01-06 19:11:00,34.2,30.7,30.00,West,267,0.0,0.0,87,0.00,,,0.05,Wunderground v.1.15,2013-01-07 00:11:00,
2013-01-06 19:17:00,33.9,30.7,30.00,West,267,0.0,0.0,88,0.00,,,0.05,Wunderground v.1.15,2013-01-07 00:17:00,
2013-01-06 19:22:00,33.7,30.8,30.00,West,268,0.0,0.0,89,0.00,,,0.05,Wunderground v.1.15,2013-01-07 00:22:00,
2013-01-06 19:28:00,33.3,30.4,30.00,West,267,0.0,0.0,89,0.00,,,0.05,Wunderground v.1.15,2013-01-07 00:28:00,
2013-01-06 19:34:00,33.3,30.7,30.01,West,281,0.0,4.0,90,0.00,,,0.05,Wunderground v.1.15,2013-01-07 00:34:00,
2013-01-06 19:40:00,33.9,31.8,30.01,WNW,300,1.0,1.0,92,0.00,,,0.05,Wunderground v.1.15,2013-01-07 00:40:00,
2013-01-06 19:46:00,34.8,32.7,30.01,NW,311,1.0,4.0,92,0.00,,,0.05,Wunderground v.1.15,2013-01-07 00:46:00,
2013-01-06 19:52:00,35.9,33.5,30.01,West,274,2.0,4.0,91,0.00,,,0.05,Wunderground v.1.15,2013-01-07 00:52:00,
2013-01-06 19:58:00,36.7,33.8,30.01,NW,304,2.0,4.0,89,0.00,,,0.05,Wunderground v.1.15,2013-01-07 00:58:00,
2013-01-06 20:04:00,37.1,33.9,30.01,WNW,289,1.0,5.0,88,0.00,,,0.05,Wunderground v.1.15,2013-01-07 01:04:00,
2013-01-06 20:10:00,37.3,33.8,30.00,WNW,298,1.0,1.0,87,0.00,,,0.05,Wunderground v.1.15,2013-01-07 01:10:00,
2013-01-06 20:15:00,37.1,33.3,30.01,WNW,288,1.0,2.0,86,0.00,,,0.05,Wunderground v.1.15,2013-01-07 01:15:00,
2013-01-06 20:20:00,36.8,33.0,30.01,WNW,295,1.0,1.0,86,0.00,,,0.05,Wunderground v.1.15,2013-01-07 01:20:00,
2013-01-06 20:26:00,36.6,33.4,30.00,WNW,296,1.0,2.0,88,0.00,,,0.05,Wunderground v.1.15,2013-01-07 01:26:00,
2013-01-06 20:32:00,37.0,33.8,30.00,NW,309,2.0,4.0,88,0.00,,,0.05,Wunderground v.1.15,2013-01-07 01:32:00,
2013-01-06 20:38:00,37.3,33.8,30.01,North,358,2.0,4.0,87,0.00,,,0.05,Wunderground v.1.15,2013-01-07 01:38:00,
2013-01-06 20:44:00,37.6,33.8,30.01,WNW,293,2.0,5.0,86,0.00,,,0.05,Wunderground v.1.15,2013-01-07 01:44:00,
2013-01-06 20:50:00,37.6,33.5,30.01,WNW,287,2.0,2.0,85,0.00,,,0.05,Wunderground v.1.15,2013-01-07 01:50:00,
2013-01-06 20:56:00,37.7,33.6,30.01,NW,309,2.0,4.0,85,0.00,,,0.05,Wunderground v.1.15,2013-01-07 01:56:00,
2013-01-06 21:02:00,37.6,33.2,30.01,NW,307,2.0,2.0,84,0.00,,,0.05,Wunderground v.1.15,2013-01-07 02:02:00,
2013-01-06 21:08:00,37.1,33.0,30.01,WNW,296,1.0,2.0,85,0.00,,,0.05,Wunderground v.1.15,2013-01-07 02:08:00,
2013-01-06 21:14:00,36.6,32.2,30.01,WNW,301,0.0,2.0,84,0.00,,,0.05,Wunderground v.1.15,2013-01-07 02:14:00,
2013-01-06 21:19:00,35.9,31.8,30.00,West,276,0.0,2.0,85,0.00,,,0.05,Wunderground v.1.15,2013-01-07 02:19:00,
2013-01-06 21:25:00,34.9,31.1,30.01,West,276,0.0,1.0,86,0.00,,,0.05,Wunderground v.1.15,2013-01-07 02:25:00,
2013-01-06 21:31:00,33.8,30.1,30.01,West,276,0.0,1.0,86,0.00,,,0.05,Wunderground v.1.15,2013-01-07 02:31:00,
2013-01-06 21:37:00,32.9,29.7,30.01,West,276,0.0,6.0,88,0.00,,,0.05,Wunderground v.1.15,2013-01-07 02:37:00,
2013-01-06 21:43:00,32.5,29.9,30.01,West,276,0.0,6.0,90,0.00,,,0.05,Wunderground v.1.15,2013-01-07 02:43:00,
2013-01-06 21:49:00,32.1,29.5,30.02,West,276,0.0,6.0,90,0.00,,,0.05,Wunderground v.1.15,2013-01-07 02:49:00,
2013-01-06 21:55:00,31.6,28.7,30.01,West,276,0.0,6.0,89,0.00,,,0.05,Wunderground v.1.15,2013-01-07 02:55:00,
2013-01-06 22:00:00,31.2,28.6,30.01,West,276,0.0,0.0,90,0.00,,,0.05,Wunderground v.1.15,2013-01-07 03:00:00,
2013-01-06 22:06:00,30.8,28.2,30.02,West,276,0.0,1.0,90,0.00,,,0.05,Wunderground v.1.15,2013-01-07 03:06:00,
2013-01-06 22:11:00,30.6,28.3,30.02,West,276,0.0,0.0,91,0.00,,,0.05,Wunderground v.1.15,2013-01-07 03:11:00,
2013-01-06 22:17:00,30.4,28.1,30.02,West,276,0.0,0.0,91,0.00,,,0.05,Wunderground v.1.15,2013-01-07 03:17:00,
2013-01-06 22:23:00,30.1,27.8,30.02,West,276,0.0,0.0,91,0.00,,,0.05,Wunderground v.1.15,2013-01-07 03:23:00,
2013-01-06 22:29:00,29.9,27.6,30.01,West,276,0.0,0.0,91,0.00,,,0.05,Wunderground v.1.15,2013-01-07 03:29:00,
2013-01-06 22:35:00,29.8,27.8,30.02,West,276,0.0,2.0,92,0.00,,,0.05,Wunderground v.1.15,2013-01-07 03:35:00,
2013-01-06 22:41:00,29.6,27.6,30.01,West,276,0.0,2.0,92,0.00,,,0.05,Wunderground v.1.15,2013-01-07 03:41:00,
2013-01-06 22:47:00,29.2,27.2,30.01,West,276,0.0,2.0,92,0.00,,,0.05,Wunderground v.1.15,2013-01-07 03:47:00,
2013-01-06 22:53:00,28.9,26.6,30.02,West,276,0.0,2.0,91,0.00,,,0.05,Wunderground v.1.15,2013-01-07 03:53:00,
2013-01-06 22:58:00,28.5,26.2,30.01,West,276,0.0,2.0,91,0.00,,,0.05,Wunderground v.1.15,2013-01-07 03:58:00,
2013-01-06 23:03:00,28.3,26.3,30.01,West,276,0.0,0.0,92,0.00,,,0.05,Wunderground v.1.15,2013-01-07 04:03:00,
2013-01-06 23:09:00,28.2,26.2,30.01,West,276,0.0,0.0,92,0.00,,,0.05,Wunderground v.1.15,2013-01-07 04:09:00,
2013-01-06 23:15:00,28.1,26.1,30.01,West,276,0.0,0.0,92,0.00,,,0.05,Wunderground v.1.15,2013-01-07 04:15:00,
2013-01-06 23:21:00,28.1,26.1,30.01,West,276,0.0,1.0,92,0.00,,,0.05,Wunderground v.1.15,2013-01-07 04:21:00,
2013-01-06 23:27:00,28.1,26.3,30.00,West,276,0.0,1.0,93,0.00,,,0.05,Wunderground v.1.15,2013-01-07 04:27:00,
2013-01-06 23:33:00,28.0,26.2,30.00,West,276,0.0,1.0,93,0.00,,,0.05,Wunderground v.1.15,2013-01-07 04:33:00,
2013-01-06 23:39:00,27.9,26.1,30.00,West,276,0.0,1.0,93,0.00,,,0.05,Wunderground v.1.15,2013-01-07 04:39:00,
2013-01-06 23:44:00,27.7,25.9,30.00,West,276,0.0,1.0,93,0.00,,,0.05,Wunderground v.1.15,2013-01-07 04:44:00,
2013-01-06 23:50:00,27.4,25.4,30.00,West,276,0.0,1.0,92,0.00,,,0.05,Wunderground v.1.15,2013-01-07 04:50:00,
2013-01-06 23:56:00,27.1,25.1,30.00,West,276,0.0,1.0,92,0.00,,,0.05,Wunderground v.1.15,2013-01-07 04:56:00,